createdAt,value
2023-02-04T00:00:35.571Z,8.71
2023-02-04T00:01:35.802Z,8.73
2023-02-04T00:02:35.562Z,8.71
2023-02-04T00:03:35.636Z,8.73
2023-02-04T00:04:35.495Z,8.73
2023-02-04T00:05:35.554Z,8.71
2023-02-04T00:06:35.497Z,8.71
2023-02-04T00:07:35.491Z,8.71
2023-02-04T00:08:35.468Z,8.68
2023-02-04T00:09:35.489Z,8.68
2023-02-04T00:10:35.512Z,8.68
2023-02-04T00:11:35.506Z,8.67
2023-02-04T00:12:35.383Z,8.67
2023-02-04T00:13:35.464Z,8.65
2023-02-04T00:14:35.388Z,8.65
2023-02-04T00:15:35.393Z,8.64
2023-02-04T00:16:35.365Z,8.65
2023-02-04T00:17:35.344Z,8.65
2023-02-04T00:18:35.335Z,8.63
2023-02-04T00:19:35.326Z,8.63
2023-02-04T00:20:35.320Z,8.63
2023-02-04T00:21:35.339Z,8.61
2023-02-04T00:22:35.288Z,8.61
2023-02-04T00:23:35.288Z,8.61
2023-02-04T00:24:35.254Z,8.60
2023-02-04T00:25:35.255Z,8.60
2023-02-04T00:26:35.243Z,8.58
2023-02-04T00:27:35.263Z,8.58
2023-02-04T00:28:35.207Z,8.60
2023-02-04T00:29:35.191Z,8.60
2023-02-04T00:30:35.166Z,8.57
2023-02-04T00:31:35.270Z,8.55
2023-02-04T00:32:35.155Z,8.55
2023-02-04T00:33:35.145Z,8.55
2023-02-04T00:34:35.132Z,8.55
2023-02-04T00:35:35.110Z,8.52
2023-02-04T00:36:35.133Z,8.52
2023-02-04T00:37:35.103Z,8.50
2023-02-04T00:38:35.071Z,8.49
2023-02-04T00:39:35.085Z,8.49
2023-02-04T00:40:35.058Z,8.49
2023-02-04T00:41:35.068Z,8.49
2023-02-04T00:42:35.040Z,8.49
2023-02-04T00:43:35.079Z,8.49
2023-02-04T00:44:34.980Z,8.46
2023-02-04T00:45:35.067Z,8.45
2023-02-04T00:46:34.990Z,8.45
2023-02-04T00:47:34.953Z,8.45
2023-02-04T00:48:34.962Z,8.42
2023-02-04T00:49:34.998Z,8.43
2023-02-04T00:50:34.902Z,8.42
2023-02-04T00:51:34.912Z,8.42
2023-02-04T00:52:34.904Z,8.42
2023-02-04T00:53:34.887Z,8.42
2023-02-04T00:54:34.849Z,8.42
2023-02-04T00:55:34.920Z,8.40
2023-02-04T00:56:34.842Z,8.40
2023-02-04T00:57:34.823Z,8.40
2023-02-04T00:58:34.841Z,8.39
2023-02-04T00:59:34.786Z,8.37
2023-02-04T01:00:34.844Z,8.40
2023-02-04T01:01:34.881Z,8.40
2023-02-04T01:02:34.819Z,8.39
2023-02-04T01:03:34.741Z,8.39
2023-02-04T01:04:34.736Z,8.39
2023-02-04T01:05:34.729Z,8.37
2023-02-04T01:06:34.742Z,8.36
2023-02-04T01:07:34.807Z,8.37
2023-02-04T01:08:34.722Z,8.37
2023-02-04T01:09:34.684Z,8.37
2023-02-04T01:10:34.703Z,8.37
2023-02-04T01:11:34.668Z,8.36
2023-02-04T01:12:34.639Z,8.39
2023-02-04T01:13:34.615Z,8.37
2023-02-04T01:14:34.699Z,8.37
2023-02-04T01:15:34.587Z,8.37
2023-02-04T01:16:34.627Z,8.37
2023-02-04T01:17:34.844Z,8.36
2023-02-04T01:18:34.609Z,8.36
2023-02-04T01:19:34.582Z,8.37
2023-02-04T01:20:34.592Z,8.37
2023-02-04T01:21:34.583Z,8.36
2023-02-04T01:22:34.559Z,8.36
2023-02-04T01:23:34.534Z,8.37
2023-02-04T01:24:34.496Z,8.34
2023-02-04T01:25:34.467Z,8.34
2023-02-04T01:26:34.455Z,8.36
2023-02-04T01:27:34.484Z,8.32
2023-02-04T01:28:34.438Z,8.34
2023-02-04T01:29:34.416Z,8.34
2023-02-04T01:30:34.783Z,8.32
2023-02-04T01:31:34.654Z,8.32
2023-02-04T01:32:34.420Z,8.31
2023-02-04T01:33:34.682Z,8.31
2023-02-04T01:34:34.400Z,8.31
2023-02-04T01:35:34.360Z,8.29
2023-02-04T01:36:34.459Z,8.29
2023-02-04T01:37:34.342Z,8.31
2023-02-04T01:38:34.336Z,8.29
2023-02-04T01:39:34.381Z,8.27
2023-02-04T01:40:34.329Z,8.28
2023-02-04T01:41:34.392Z,8.28
2023-02-04T01:42:34.433Z,8.28
2023-02-04T01:43:34.284Z,8.28
2023-02-04T01:44:34.369Z,8.28
2023-02-04T01:45:34.277Z,8.29
2023-02-04T01:46:35.109Z,8.27
2023-02-04T01:47:34.321Z,8.27
2023-02-04T01:48:34.217Z,8.27
2023-02-04T01:49:34.159Z,8.27
2023-02-04T01:50:34.195Z,8.25
2023-02-04T01:51:34.252Z,8.25
2023-02-04T01:52:34.161Z,8.25
2023-02-04T01:53:34.102Z,8.27
2023-02-04T01:54:34.099Z,8.27
2023-02-04T01:55:34.109Z,8.27
2023-02-04T01:56:34.069Z,8.25
2023-02-04T01:57:34.092Z,8.25
2023-02-04T01:58:34.051Z,8.25
2023-02-04T01:59:34.071Z,8.24
2023-02-04T02:00:34.329Z,8.24
2023-02-04T02:01:34.081Z,8.24
2023-02-04T02:02:34.128Z,8.22
2023-02-04T02:03:34.293Z,8.21
2023-02-04T02:04:33.977Z,8.20
2023-02-04T02:05:33.997Z,8.20
2023-02-04T02:06:33.961Z,8.20
2023-02-04T02:07:33.929Z,8.20
2023-02-04T02:08:33.967Z,8.20
2023-02-04T02:09:33.938Z,8.20
2023-02-04T02:10:33.973Z,8.20
2023-02-04T02:11:33.970Z,8.20
2023-02-04T02:12:33.898Z,8.18
2023-02-04T02:13:33.857Z,8.18
2023-02-04T02:14:33.848Z,8.17
2023-02-04T02:15:33.879Z,8.17
2023-02-04T02:16:33.877Z,8.13
2023-02-04T02:17:33.798Z,8.14
2023-02-04T02:18:33.822Z,8.13
2023-02-04T02:19:33.800Z,8.14
2023-02-04T02:20:33.901Z,8.13
2023-02-04T02:21:33.800Z,8.12
2023-02-04T02:22:33.773Z,8.12
2023-02-04T02:23:33.726Z,8.14
2023-02-04T02:24:33.720Z,8.13
2023-02-04T02:25:33.712Z,8.10
2023-02-04T02:26:33.722Z,8.13
2023-02-04T02:27:33.675Z,8.10
2023-02-04T02:28:34.421Z,8.12
2023-02-04T02:29:33.691Z,8.13
2023-02-04T02:30:34.051Z,8.12
2023-02-04T02:31:33.744Z,8.12
2023-02-04T02:32:33.662Z,8.13
2023-02-04T02:33:33.597Z,8.10
2023-02-04T02:34:33.622Z,8.13
2023-02-04T02:35:33.570Z,8.13
2023-02-04T02:36:33.607Z,8.13
2023-02-04T02:37:33.573Z,8.13
2023-02-04T02:38:33.575Z,8.13
2023-02-04T02:39:33.544Z,8.13
2023-02-04T02:40:33.652Z,8.13
2023-02-04T02:41:33.531Z,8.12
2023-02-04T02:42:33.522Z,8.12
2023-02-04T02:43:33.493Z,8.10
2023-02-04T02:44:33.469Z,8.10
2023-02-04T02:45:33.502Z,8.13
2023-02-04T02:46:33.452Z,8.13
2023-02-04T02:47:33.421Z,8.10
2023-02-04T02:48:33.410Z,8.12
2023-02-04T02:49:33.412Z,8.10
2023-02-04T02:50:33.692Z,8.12
2023-02-04T02:51:33.355Z,8.10
2023-02-04T02:52:33.414Z,8.10
2023-02-04T02:53:33.354Z,8.07
2023-02-04T02:54:33.382Z,8.09
2023-02-04T02:55:33.312Z,8.10
2023-02-04T02:56:33.333Z,8.09
2023-02-04T02:57:33.314Z,8.09
2023-02-04T02:58:33.365Z,8.07
2023-02-04T02:59:33.290Z,8.07
2023-02-04T03:00:33.638Z,8.07
2023-02-04T03:01:33.293Z,8.07
2023-02-04T03:02:33.254Z,8.07
2023-02-04T03:03:33.245Z,8.06
2023-02-04T03:04:33.228Z,8.06
2023-02-04T03:05:33.183Z,8.06
2023-02-04T03:06:33.182Z,8.07
2023-02-04T03:07:33.179Z,8.04
2023-02-04T03:08:33.140Z,8.04
2023-02-04T03:09:33.142Z,8.06
2023-02-04T03:10:33.318Z,8.06
2023-02-04T03:11:33.146Z,8.06
2023-02-04T03:12:33.100Z,8.06
2023-02-04T03:13:33.114Z,8.07
2023-02-04T03:14:33.200Z,8.06
2023-02-04T03:15:33.115Z,8.06
2023-02-04T03:16:33.109Z,8.06
2023-02-04T03:17:33.028Z,8.07
2023-02-04T03:18:33.059Z,8.06
2023-02-04T03:19:32.989Z,8.06
2023-02-04T03:20:33.352Z,8.03
2023-02-04T03:21:33.016Z,8.02
2023-02-04T03:22:33.004Z,8.00
2023-02-04T03:23:32.980Z,7.99
2023-02-04T03:24:32.989Z,7.96
2023-02-04T03:25:32.971Z,7.95
2023-02-04T03:26:32.934Z,7.95
2023-02-04T03:27:32.952Z,7.94
2023-02-04T03:28:32.910Z,7.94
2023-02-04T03:29:32.927Z,7.96
2023-02-04T03:30:33.287Z,7.95
2023-02-04T03:31:32.977Z,7.94
2023-02-04T03:32:32.896Z,7.95
2023-02-04T03:33:32.871Z,7.94
2023-02-04T03:34:32.840Z,7.94
2023-02-04T03:35:32.845Z,7.94
2023-02-04T03:36:32.802Z,7.91
2023-02-04T03:37:32.798Z,7.91
2023-02-04T03:38:32.820Z,7.92
2023-02-04T03:39:32.793Z,7.92
2023-02-04T03:40:33.174Z,7.92
2023-02-04T03:41:32.723Z,7.94
2023-02-04T03:42:32.754Z,7.94
2023-02-04T03:43:34.058Z,7.94
2023-02-04T03:44:32.748Z,7.95
2023-02-04T03:45:44.701Z,7.95
2023-02-04T03:46:33.712Z,7.95
2023-02-04T03:47:32.701Z,7.94
2023-02-04T03:48:32.699Z,7.92
2023-02-04T03:49:32.619Z,7.92
2023-02-04T03:50:33.045Z,7.94
2023-02-04T03:51:32.601Z,7.92
2023-02-04T03:52:32.641Z,7.92
2023-02-04T03:53:32.601Z,7.89
2023-02-04T03:54:32.633Z,7.91
2023-02-04T03:55:32.565Z,7.92
2023-02-04T03:56:32.551Z,7.91
2023-02-04T03:57:32.536Z,7.91
2023-02-04T03:58:32.558Z,7.92
2023-02-04T03:59:32.527Z,7.92
2023-02-04T04:00:32.908Z,7.94
2023-02-04T04:01:32.488Z,7.92
2023-02-04T04:02:32.497Z,7.94
2023-02-04T04:03:32.447Z,7.94
2023-02-04T04:04:32.477Z,7.92
2023-02-04T04:05:32.448Z,7.91
2023-02-04T04:06:32.525Z,7.94
2023-02-04T04:07:32.417Z,7.92
2023-02-04T04:08:32.389Z,7.94
2023-02-04T04:09:32.362Z,7.95
2023-02-04T04:10:32.747Z,7.94
2023-02-04T04:11:32.409Z,7.94
2023-02-04T04:12:32.364Z,7.94
2023-02-04T04:13:32.337Z,7.92
2023-02-04T04:14:32.336Z,7.92
2023-02-04T04:15:32.333Z,7.91
2023-02-04T04:16:32.323Z,7.88
2023-02-04T04:17:32.263Z,7.86
2023-02-04T04:18:32.292Z,7.85
2023-02-04T04:19:32.274Z,7.85
2023-02-04T04:20:32.589Z,7.86
2023-02-04T04:21:32.259Z,7.86
2023-02-04T04:22:32.231Z,7.86
2023-02-04T04:23:32.227Z,7.85
2023-02-04T04:24:32.233Z,7.85
2023-02-04T04:25:32.180Z,7.82
2023-02-04T04:26:32.181Z,7.82
2023-02-04T04:27:32.124Z,7.82
2023-02-04T04:28:32.191Z,7.81
2023-02-04T04:29:32.140Z,7.81
2023-02-04T04:30:32.501Z,7.77
2023-02-04T04:31:32.250Z,7.76
2023-02-04T04:32:32.107Z,7.74
2023-02-04T04:33:32.088Z,7.74
2023-02-04T04:34:32.075Z,7.73
2023-02-04T04:35:32.057Z,7.70
2023-02-04T04:36:32.071Z,7.70
2023-02-04T04:37:32.025Z,7.70
2023-02-04T04:38:32.045Z,7.69
2023-02-04T04:39:31.975Z,7.69
2023-02-04T04:40:32.383Z,7.69
2023-02-04T04:41:31.973Z,7.67
2023-02-04T04:42:31.997Z,7.66
2023-02-04T04:43:31.925Z,7.67
2023-02-04T04:44:31.940Z,7.67
2023-02-04T04:45:31.942Z,7.67
2023-02-04T04:46:31.910Z,7.67
2023-02-04T04:47:31.900Z,7.67
2023-02-04T04:48:31.927Z,7.67
2023-02-04T04:49:31.920Z,7.69
2023-02-04T04:50:32.368Z,7.69
2023-02-04T04:51:31.866Z,7.69
2023-02-04T04:52:31.874Z,7.69
2023-02-04T04:53:31.796Z,7.67
2023-02-04T04:54:31.791Z,7.67
2023-02-04T04:55:31.760Z,7.69
2023-02-04T04:56:31.795Z,7.63
2023-02-04T04:57:31.759Z,7.66
2023-02-04T04:58:31.750Z,7.67
2023-02-04T04:59:31.718Z,7.69
2023-02-04T05:00:32.206Z,7.69
2023-02-04T05:01:31.716Z,7.69
2023-02-04T05:02:31.704Z,7.69
2023-02-04T05:03:31.678Z,7.67
2023-02-04T05:04:31.765Z,7.67
2023-02-04T05:05:31.653Z,7.69
2023-02-04T05:06:31.654Z,7.67
2023-02-04T05:07:31.685Z,7.67
2023-02-04T05:08:31.669Z,7.62
2023-02-04T05:09:31.621Z,7.63
2023-02-04T05:10:31.902Z,7.63
2023-02-04T05:11:31.566Z,7.63
2023-02-04T05:12:31.598Z,7.66
2023-02-04T05:13:31.614Z,7.66
2023-02-04T05:14:31.536Z,7.63
2023-02-04T05:15:39.399Z,7.62
2023-02-04T05:16:34.265Z,7.60
2023-02-04T05:17:31.539Z,7.60
2023-02-04T05:18:31.484Z,7.63
2023-02-04T05:19:31.497Z,7.63
2023-02-04T05:20:31.768Z,7.60
2023-02-04T05:21:31.485Z,7.62
2023-02-04T05:22:31.450Z,7.62
2023-02-04T05:23:31.422Z,7.62
2023-02-04T05:24:31.472Z,7.62
2023-02-04T05:25:31.402Z,7.62
2023-02-04T05:26:31.522Z,7.62
2023-02-04T05:27:31.418Z,7.63
2023-02-04T05:28:31.424Z,7.60
2023-02-04T05:29:31.363Z,7.58
2023-02-04T05:30:31.820Z,7.58
2023-02-04T05:31:31.400Z,7.58
2023-02-04T05:32:31.330Z,7.58
2023-02-04T05:33:31.341Z,7.60
2023-02-04T05:34:31.273Z,7.58
2023-02-04T05:35:31.297Z,7.58
2023-02-04T05:36:31.278Z,7.58
2023-02-04T05:37:31.308Z,7.55
2023-02-04T05:38:31.259Z,7.57
2023-02-04T05:39:31.257Z,7.55
2023-02-04T05:40:31.550Z,7.55
2023-02-04T05:41:31.244Z,7.55
2023-02-04T05:42:31.168Z,7.54
2023-02-04T05:43:31.179Z,7.57
2023-02-04T05:44:31.173Z,7.55
2023-02-04T05:45:31.212Z,7.55
2023-02-04T05:46:31.148Z,7.55
2023-02-04T05:47:31.148Z,7.57
2023-02-04T05:48:31.096Z,7.55
2023-02-04T05:49:31.137Z,7.54
2023-02-04T05:50:31.506Z,7.55
2023-02-04T05:51:31.082Z,7.55
2023-02-04T05:52:31.122Z,7.55
2023-02-04T05:53:31.047Z,7.55
2023-02-04T05:54:31.027Z,7.55
2023-02-04T05:55:31.065Z,7.54
2023-02-04T05:56:31.015Z,7.55
2023-02-04T05:57:31.019Z,7.55
2023-02-04T05:58:30.990Z,7.52
2023-02-04T05:59:31.004Z,7.51
2023-02-04T06:00:31.237Z,7.52
2023-02-04T06:01:30.942Z,7.50
2023-02-04T06:02:30.950Z,7.50
2023-02-04T06:03:31.106Z,7.50
2023-02-04T06:04:31.039Z,7.50
2023-02-04T06:05:31.690Z,7.50
2023-02-04T06:06:30.942Z,7.50
2023-02-04T06:07:30.862Z,7.47
2023-02-04T06:08:30.857Z,7.47
2023-02-04T06:09:30.870Z,7.47
2023-02-04T06:10:31.276Z,7.45
2023-02-04T06:11:30.837Z,7.47
2023-02-04T06:12:30.790Z,7.45
2023-02-04T06:13:31.085Z,7.47
2023-02-04T06:14:30.761Z,7.47
2023-02-04T06:15:30.791Z,7.47
2023-02-04T06:16:30.874Z,7.42
2023-02-04T06:17:30.766Z,7.42
2023-02-04T06:18:30.748Z,7.42
2023-02-04T06:19:30.729Z,7.42
2023-02-04T06:20:31.120Z,7.44
2023-02-04T06:21:30.699Z,7.42
2023-02-04T06:22:30.694Z,7.44
2023-02-04T06:23:30.694Z,7.44
2023-02-04T06:24:30.675Z,7.44
2023-02-04T06:25:30.642Z,7.42
2023-02-04T06:26:30.674Z,7.42
2023-02-04T06:27:30.614Z,7.42
2023-02-04T06:28:30.647Z,7.44
2023-02-04T06:29:30.635Z,7.42
2023-02-04T06:30:31.204Z,7.41
2023-02-04T06:31:30.761Z,7.41
2023-02-04T06:32:30.536Z,7.39
2023-02-04T06:33:30.574Z,7.39
2023-02-04T06:34:30.538Z,7.37
2023-02-04T06:35:30.561Z,7.37
2023-02-04T06:36:30.517Z,7.37
2023-02-04T06:37:30.515Z,7.36
2023-02-04T06:38:30.454Z,7.34
2023-02-04T06:39:30.470Z,7.36
2023-02-04T06:40:30.783Z,7.36
2023-02-04T06:41:30.457Z,7.36
2023-02-04T06:42:30.442Z,7.36
2023-02-04T06:43:30.431Z,7.37
2023-02-04T06:44:30.411Z,7.37
2023-02-04T06:45:30.375Z,7.37
2023-02-04T06:46:30.495Z,7.36
2023-02-04T06:47:30.461Z,7.33
2023-02-04T06:48:31.227Z,7.34
2023-02-04T06:49:30.330Z,7.36
2023-02-04T06:50:30.774Z,7.36
2023-02-04T06:51:30.343Z,7.37
2023-02-04T06:52:30.337Z,7.37
2023-02-04T06:53:30.321Z,7.36
2023-02-04T06:54:30.279Z,7.34
2023-02-04T06:55:30.280Z,7.33
2023-02-04T06:56:30.242Z,7.32
2023-02-04T06:57:30.249Z,7.30
2023-02-04T06:58:30.204Z,7.32
2023-02-04T06:59:30.245Z,7.33
2023-02-04T07:00:30.686Z,7.33
2023-02-04T07:01:30.272Z,7.33
2023-02-04T07:02:30.202Z,7.34
2023-02-04T07:03:30.258Z,7.32
2023-02-04T07:04:30.153Z,7.33
2023-02-04T07:05:30.198Z,7.33
2023-02-04T07:06:30.102Z,7.34
2023-02-04T07:07:30.127Z,7.34
2023-02-04T07:08:30.105Z,7.32
2023-02-04T07:09:30.075Z,7.30
2023-02-04T07:10:30.369Z,7.32
2023-02-04T07:11:30.086Z,7.33
2023-02-04T07:12:30.057Z,7.29
2023-02-04T07:13:30.031Z,7.30
2023-02-04T07:14:30.056Z,7.29
2023-02-04T07:15:30.094Z,7.29
2023-02-04T07:16:29.982Z,7.29
2023-02-04T07:17:30.007Z,7.29
2023-02-04T07:18:29.988Z,7.27
2023-02-04T07:19:29.952Z,7.27
2023-02-04T07:20:30.478Z,7.29
2023-02-04T07:21:29.949Z,7.26
2023-02-04T07:22:29.963Z,7.27
2023-02-04T07:23:29.937Z,7.27
2023-02-04T07:24:29.915Z,7.27
2023-02-04T07:25:29.932Z,7.29
2023-02-04T07:26:29.888Z,7.27
2023-02-04T07:27:29.871Z,7.26
2023-02-04T07:28:29.818Z,7.27
2023-02-04T07:29:29.838Z,7.29
2023-02-04T07:30:30.263Z,7.27
2023-02-04T07:31:29.981Z,7.27
2023-02-04T07:32:29.774Z,7.29
2023-02-04T07:33:29.808Z,7.29
2023-02-04T07:34:29.747Z,7.29
2023-02-04T07:35:29.747Z,7.30
2023-02-04T07:36:29.870Z,7.32
2023-02-04T07:37:29.743Z,7.32
2023-02-04T07:38:29.704Z,7.32
2023-02-04T07:39:29.720Z,7.34
2023-02-04T07:40:29.983Z,7.34
2023-02-04T07:41:29.661Z,7.33
2023-02-04T07:42:29.651Z,7.37
2023-02-04T07:43:29.631Z,7.36
2023-02-04T07:44:29.619Z,7.37
2023-02-04T07:45:29.649Z,7.39
2023-02-04T07:46:29.645Z,7.37
2023-02-04T07:47:29.616Z,7.36
2023-02-04T07:48:29.712Z,7.36
2023-02-04T07:49:29.559Z,7.36
2023-02-04T07:50:29.660Z,7.36
2023-02-04T07:51:29.667Z,7.37
2023-02-04T07:52:29.527Z,7.37
2023-02-04T07:53:29.552Z,7.39
2023-02-04T07:54:29.503Z,7.37
2023-02-04T07:55:29.501Z,7.37
2023-02-04T07:56:29.475Z,7.34
2023-02-04T07:57:29.464Z,7.37
2023-02-04T07:58:30.287Z,7.36
2023-02-04T07:59:29.476Z,7.36
2023-02-04T08:00:29.465Z,7.34
2023-02-04T08:01:29.454Z,7.33
2023-02-04T08:02:29.436Z,7.34
2023-02-04T08:03:29.444Z,7.37
2023-02-04T08:04:29.385Z,7.37
2023-02-04T08:05:29.373Z,7.39
2023-02-04T08:06:29.360Z,7.39
2023-02-04T08:07:29.343Z,7.41
2023-02-04T08:08:29.352Z,7.42
2023-02-04T08:09:29.754Z,7.44
2023-02-04T08:10:29.629Z,7.47
2023-02-04T08:11:29.279Z,7.47
2023-02-04T08:12:29.274Z,7.47
2023-02-04T08:13:29.257Z,7.47
2023-02-04T08:14:29.278Z,7.51
2023-02-04T08:15:29.259Z,7.51
2023-02-04T08:16:29.196Z,7.54
2023-02-04T08:17:29.205Z,7.54
2023-02-04T08:18:29.225Z,7.55
2023-02-04T08:19:29.178Z,7.54
2023-02-04T08:20:29.332Z,7.58
2023-02-04T08:21:29.169Z,7.57
2023-02-04T08:22:29.157Z,7.57
2023-02-04T08:23:29.151Z,7.57
2023-02-04T08:24:29.135Z,7.57
2023-02-04T08:25:29.131Z,7.60
2023-02-04T08:26:29.089Z,7.62
2023-02-04T08:27:29.064Z,7.63
2023-02-04T08:28:29.063Z,7.66
2023-02-04T08:29:29.055Z,7.67
2023-02-04T08:30:29.079Z,7.69
2023-02-04T08:31:29.164Z,7.69
2023-02-04T08:32:29.001Z,7.71
2023-02-04T08:33:29.017Z,7.71
2023-02-04T08:34:28.977Z,7.70
2023-02-04T08:35:28.989Z,7.71
2023-02-04T08:36:28.996Z,7.73
2023-02-04T08:37:28.930Z,7.71
2023-02-04T08:38:28.903Z,7.74
2023-02-04T08:39:28.929Z,7.73
2023-02-04T08:40:28.877Z,7.77
2023-02-04T08:41:28.906Z,7.77
2023-02-04T08:42:28.891Z,7.79
2023-02-04T08:43:28.853Z,7.81
2023-02-04T08:44:28.826Z,7.82
2023-02-04T08:45:28.863Z,7.82
2023-02-04T08:46:28.945Z,7.82
2023-02-04T08:47:28.854Z,7.82
2023-02-04T08:48:28.802Z,7.81
2023-02-04T08:49:28.801Z,7.84
2023-02-04T08:50:28.770Z,7.82
2023-02-04T08:51:28.795Z,7.82
2023-02-04T08:52:28.760Z,7.82
2023-02-04T08:53:28.754Z,7.81
2023-02-04T08:54:28.714Z,7.81
2023-02-04T08:55:28.751Z,7.81
2023-02-04T08:56:28.709Z,7.82
2023-02-04T08:57:28.705Z,7.84
2023-02-04T08:58:28.695Z,7.82
2023-02-04T08:59:28.711Z,7.81
2023-02-04T09:00:28.742Z,7.81
2023-02-04T09:01:28.649Z,7.84
2023-02-04T09:02:28.752Z,7.82
2023-02-04T09:03:28.678Z,7.84
2023-02-04T09:04:28.629Z,7.85
2023-02-04T09:05:28.599Z,7.85
2023-02-04T09:06:28.582Z,7.82
2023-02-04T09:07:28.617Z,7.85
2023-02-04T09:08:28.582Z,7.88
2023-02-04T09:09:28.554Z,7.89
2023-02-04T09:10:28.534Z,7.92
2023-02-04T09:11:28.563Z,7.94
2023-02-04T09:12:28.560Z,7.96
2023-02-04T09:13:28.558Z,7.99
2023-02-04T09:14:28.535Z,8.02
2023-02-04T09:15:28.483Z,8.03
2023-02-04T09:16:28.531Z,8.03
2023-02-04T09:17:28.463Z,8.04
2023-02-04T09:18:28.460Z,8.06
2023-02-04T09:19:28.426Z,8.09
2023-02-04T09:20:28.453Z,8.10
2023-02-04T09:21:28.412Z,8.12
2023-02-04T09:22:28.413Z,8.12
2023-02-04T09:23:28.477Z,8.13
2023-02-04T09:24:28.362Z,8.18
2023-02-04T09:25:28.365Z,8.14
2023-02-04T09:26:28.371Z,8.17
2023-02-04T09:27:28.334Z,8.14
2023-02-04T09:28:28.314Z,8.13
2023-02-04T09:29:28.343Z,8.14
2023-02-04T09:30:28.284Z,8.17
2023-02-04T09:31:28.402Z,8.17
2023-02-04T09:32:28.319Z,8.18
2023-02-04T09:33:28.298Z,8.14
2023-02-04T09:34:28.249Z,8.18
2023-02-04T09:35:28.214Z,8.20
2023-02-04T09:36:28.240Z,8.22
2023-02-04T09:37:28.238Z,8.25
2023-02-04T09:38:28.224Z,8.27
2023-02-04T09:39:28.212Z,8.28
2023-02-04T09:40:28.164Z,8.29
2023-02-04T09:41:28.145Z,8.31
2023-02-04T09:42:28.200Z,8.32
2023-02-04T09:43:28.118Z,8.32
2023-02-04T09:44:28.116Z,8.34
2023-02-04T09:45:28.190Z,8.36
2023-02-04T09:46:28.093Z,8.36
2023-02-04T09:47:28.095Z,8.34
2023-02-04T09:48:28.074Z,8.36
2023-02-04T09:49:28.062Z,8.34
2023-02-04T09:50:28.073Z,8.32
2023-02-04T09:51:28.054Z,8.29
2023-02-04T09:52:28.038Z,8.28
2023-02-04T09:53:27.997Z,8.28
2023-02-04T09:54:27.985Z,8.31
2023-02-04T09:55:28.751Z,8.31
2023-02-04T09:56:27.955Z,8.31
2023-02-04T09:57:27.996Z,8.32
2023-02-04T09:58:27.932Z,8.34
2023-02-04T09:59:27.907Z,8.34
2023-02-04T10:00:27.924Z,8.36
2023-02-04T10:01:27.937Z,8.37
2023-02-04T10:02:27.936Z,8.42
2023-02-04T10:03:27.930Z,8.43
2023-02-04T10:04:27.848Z,8.42
2023-02-04T10:05:27.849Z,8.43
2023-02-04T10:06:27.838Z,8.46
2023-02-04T10:07:27.855Z,8.46
2023-02-04T10:08:27.792Z,8.46
2023-02-04T10:09:27.788Z,8.45
2023-02-04T10:10:27.832Z,8.43
2023-02-04T10:11:27.776Z,8.46
2023-02-04T10:12:27.789Z,8.47
2023-02-04T10:13:27.785Z,8.49
2023-02-04T10:14:27.741Z,8.50
2023-02-04T10:15:27.716Z,8.54
2023-02-04T10:16:27.778Z,8.57
2023-02-04T10:17:27.763Z,8.55
2023-02-04T10:18:27.711Z,8.55
2023-02-04T10:19:27.694Z,8.54
2023-02-04T10:20:27.661Z,8.54
2023-02-04T10:21:28.559Z,8.52
2023-02-04T10:22:27.661Z,8.52
2023-02-04T10:23:27.602Z,8.50
2023-02-04T10:24:27.621Z,8.47
2023-02-04T10:25:27.623Z,8.45
2023-02-04T10:26:27.631Z,8.45
2023-02-04T10:27:27.572Z,8.47
2023-02-04T10:28:28.420Z,8.47
2023-02-04T10:29:27.504Z,8.49
2023-02-04T10:30:27.531Z,8.45
2023-02-04T10:31:27.607Z,8.46
2023-02-04T10:32:27.541Z,8.49
2023-02-04T10:33:27.466Z,8.50
2023-02-04T10:34:27.513Z,8.54
2023-02-04T10:35:27.454Z,8.49
2023-02-04T10:36:27.435Z,8.50
2023-02-04T10:37:27.446Z,8.47
2023-02-04T10:38:27.464Z,8.46
2023-02-04T10:39:27.413Z,8.46
2023-02-04T10:40:27.445Z,8.46
2023-02-04T10:41:27.448Z,8.46
2023-02-04T10:42:27.382Z,8.47
2023-02-04T10:43:27.328Z,8.50
2023-02-04T10:44:27.350Z,8.54
2023-02-04T10:45:27.306Z,8.55
2023-02-04T10:46:27.362Z,8.58
2023-02-04T10:47:27.303Z,8.58
2023-02-04T10:48:27.405Z,8.61
2023-02-04T10:49:27.302Z,8.61
2023-02-04T10:50:27.277Z,8.60
2023-02-04T10:51:27.274Z,8.61
2023-02-04T10:52:27.248Z,8.61
2023-02-04T10:53:27.229Z,8.65
2023-02-04T10:54:27.241Z,8.65
2023-02-04T10:55:27.184Z,8.64
2023-02-04T10:56:27.237Z,8.64
2023-02-04T10:57:27.187Z,8.64
2023-02-04T10:58:27.180Z,8.67
2023-02-04T10:59:27.171Z,8.68
2023-02-04T11:00:27.180Z,8.67
2023-02-04T11:01:27.186Z,8.61
2023-02-04T11:02:27.160Z,8.61
2023-02-04T11:03:27.166Z,8.60
2023-02-04T11:04:27.074Z,8.58
2023-02-04T11:05:27.082Z,8.60
2023-02-04T11:06:27.091Z,8.60
2023-02-04T11:07:27.070Z,8.61
2023-02-04T11:08:27.063Z,8.63
2023-02-04T11:09:27.004Z,8.60
2023-02-04T11:10:27.004Z,8.57
2023-02-04T11:11:26.979Z,8.58
2023-02-04T11:12:27.020Z,8.58
2023-02-04T11:13:26.966Z,8.55
2023-02-04T11:14:27.008Z,8.55
2023-02-04T11:15:26.933Z,8.54
2023-02-04T11:16:27.055Z,8.54
2023-02-04T11:17:27.930Z,8.55
2023-02-04T11:18:27.162Z,8.50
2023-02-04T11:19:26.872Z,8.50
2023-02-04T11:20:26.863Z,8.52
2023-02-04T11:21:26.853Z,8.54
2023-02-04T11:22:26.843Z,8.54
2023-02-04T11:23:26.878Z,8.57
2023-02-04T11:24:26.870Z,8.57
2023-02-04T11:25:26.814Z,8.57
2023-02-04T11:26:26.829Z,8.57
2023-02-04T11:27:26.814Z,8.57
2023-02-04T11:28:26.798Z,8.58
2023-02-04T11:29:26.801Z,8.61
2023-02-04T11:30:26.778Z,8.63
2023-02-04T11:31:26.900Z,8.60
2023-02-04T11:32:26.760Z,8.60
2023-02-04T11:33:26.731Z,8.58
2023-02-04T11:34:26.702Z,8.55
2023-02-04T11:35:26.699Z,8.55
2023-02-04T11:36:26.706Z,8.58
2023-02-04T11:37:26.666Z,8.58
2023-02-04T11:38:26.641Z,8.58
2023-02-04T11:39:26.618Z,8.60
2023-02-04T11:40:26.613Z,8.63
2023-02-04T11:41:26.618Z,8.67
2023-02-04T11:42:26.595Z,8.67
2023-02-04T11:43:26.555Z,8.68
2023-02-04T11:44:26.564Z,8.73
2023-02-04T11:45:26.563Z,8.73
2023-02-04T11:46:26.608Z,8.78
2023-02-04T11:47:26.524Z,8.80
2023-02-04T11:48:26.541Z,8.83
2023-02-04T11:49:26.490Z,8.85
2023-02-04T11:50:26.514Z,8.85
2023-02-04T11:51:26.508Z,8.83
2023-02-04T11:52:26.453Z,8.83
2023-02-04T11:53:26.450Z,8.83
2023-02-04T11:54:26.457Z,8.85
2023-02-04T11:55:26.448Z,8.88
2023-02-04T11:56:26.412Z,8.91
2023-02-04T11:57:26.433Z,8.96
2023-02-04T11:58:35.206Z,8.96
2023-02-04T11:59:26.430Z,8.97
2023-02-04T12:00:26.400Z,9.00
2023-02-04T12:01:26.335Z,9.03
2023-02-04T12:02:26.385Z,9.03
2023-02-04T12:03:26.501Z,9.01
2023-02-04T12:04:26.371Z,9.01
2023-02-04T12:05:26.280Z,9.01
2023-02-04T12:06:26.276Z,9.03
2023-02-04T12:07:26.279Z,9.03
2023-02-04T12:08:26.342Z,9.06
2023-02-04T12:09:26.261Z,9.12
2023-02-04T12:10:26.229Z,9.12
2023-02-04T12:11:26.238Z,9.13
2023-02-04T12:12:26.221Z,9.13
2023-02-04T12:13:26.305Z,9.17
2023-02-04T12:14:26.186Z,9.17
2023-02-04T12:15:26.196Z,9.17
2023-02-04T12:16:26.303Z,9.16
2023-02-04T12:17:26.128Z,9.17
2023-02-04T12:18:26.174Z,9.19
2023-02-04T12:19:27.653Z,9.19
2023-02-04T12:20:26.120Z,9.17
2023-02-04T12:21:26.139Z,9.15
2023-02-04T12:22:26.087Z,9.15
2023-02-04T12:23:26.157Z,9.16
2023-02-04T12:24:26.062Z,9.19
2023-02-04T12:25:26.080Z,9.20
2023-02-04T12:26:26.050Z,9.20
2023-02-04T12:27:26.050Z,9.19
2023-02-04T12:28:26.061Z,9.20
2023-02-04T12:29:25.970Z,9.19
2023-02-04T12:30:26.030Z,9.23
2023-02-04T12:31:26.217Z,9.23
2023-02-04T12:32:25.948Z,9.22
2023-02-04T12:33:25.939Z,9.23
2023-02-04T12:34:25.938Z,9.27
2023-02-04T12:35:25.928Z,9.27
2023-02-04T12:36:26.084Z,9.26
2023-02-04T12:37:25.928Z,9.30
2023-02-04T12:38:25.893Z,9.30
2023-02-04T12:39:25.906Z,9.32
2023-02-04T12:40:25.872Z,9.34
2023-02-04T12:41:25.855Z,9.34
2023-02-04T12:42:25.818Z,9.35
2023-02-04T12:43:28.174Z,9.34
2023-02-04T12:44:25.818Z,9.34
2023-02-04T12:45:25.821Z,9.34
2023-02-04T12:46:25.866Z,9.31
2023-02-04T12:47:25.757Z,9.30
2023-02-04T12:48:25.763Z,9.32
2023-02-04T12:49:25.759Z,9.26
2023-02-04T12:50:25.709Z,9.27
2023-02-04T12:51:25.742Z,9.30
2023-02-04T12:52:25.698Z,9.30
2023-02-04T12:53:25.705Z,9.31
2023-02-04T12:54:25.688Z,9.31
2023-02-04T12:55:25.696Z,9.30
2023-02-04T12:56:25.699Z,9.30
2023-02-04T12:57:25.648Z,9.26
2023-02-04T12:58:25.711Z,9.31
2023-02-04T12:59:25.670Z,9.31
2023-02-04T13:00:25.645Z,9.26
2023-02-04T13:01:25.549Z,9.26
2023-02-04T13:02:25.607Z,9.27
2023-02-04T13:03:25.571Z,9.30
2023-02-04T13:04:25.551Z,9.27
2023-02-04T13:05:25.537Z,9.27
2023-02-04T13:06:25.532Z,9.27
2023-02-04T13:07:25.481Z,9.30
2023-02-04T13:08:25.529Z,9.27
2023-02-04T13:09:25.457Z,9.27
2023-02-04T13:10:25.519Z,9.30
2023-02-04T13:11:25.460Z,9.27
2023-02-04T13:12:25.459Z,9.30
2023-02-04T13:13:25.452Z,9.30
2023-02-04T13:14:25.456Z,9.32
2023-02-04T13:15:25.378Z,9.32
2023-02-04T13:16:25.529Z,9.34
2023-02-04T13:17:25.366Z,9.37
2023-02-04T13:18:25.407Z,9.37